sensor_id;sensor_type;location;lat;lon;timestamp;temperature;humidity
18597;DHT22;9428;50.950;6.912;2023-09-19T00:01:59;17.70;99.90
18597;DHT22;9428;50.950;6.912;2023-09-19T00:04:48;17.60;99.90
18597;DHT22;9428;50.950;6.912;2023-09-19T00:07:35;17.60;99.90
18597;DHT22;9428;50.950;6.912;2023-09-19T00:10:23;17.60;99.90
18597;DHT22;9428;50.950;6.912;2023-09-19T00:13:11;17.60;99.90
18597;DHT22;9428;50.950;6.912;2023-09-19T00:15:59;17.60;99.90
18597;DHT22;9428;50.950;6.912;2023-09-19T00:18:47;17.50;99.90
18597;DHT22;9428;50.950;6.912;2023-09-19T00:21:36;17.60;99.90
18597;DHT22;9428;50.950;6.912;2023-09-19T00:24:24;17.60;99.90
18597;DHT22;9428;50.950;6.912;2023-09-19T00:27:11;17.60;99.90
18597;DHT22;9428;50.950;6.912;2023-09-19T00:29:58;17.50;99.90
18597;DHT22;9428;50.950;6.912;2023-09-19T00:32:46;17.50;99.90
18597;DHT22;9428;50.950;6.912;2023-09-19T00:35:34;17.50;99.90
18597;DHT22;9428;50.950;6.912;2023-09-19T00:38:24;17.50;99.90
18597;DHT22;9428;50.950;6.912;2023-09-19T00:41:12;17.40;99.90
18597;DHT22;9428;50.950;6.912;2023-09-19T00:43:59;17.40;99.90
18597;DHT22;9428;50.950;6.912;2023-09-19T00:46:47;17.40;99.90
18597;DHT22;9428;50.950;6.912;2023-09-19T00:49:36;17.50;99.90
18597;DHT22;9428;50.950;6.912;2023-09-19T00:52:24;17.50;99.90
18597;DHT22;9428;50.950;6.912;2023-09-19T00:55:14;17.30;99.90
18597;DHT22;9428;50.950;6.912;2023-09-19T00:58:05;17.30;99.90
18597;DHT22;9428;50.950;6.912;2023-09-19T01:00:53;17.50;99.90
18597;DHT22;9428;50.950;6.912;2023-09-19T01:03:41;17.40;99.90
18597;DHT22;9428;50.950;6.912;2023-09-19T01:06:30;17.40;99.90
18597;DHT22;9428;50.950;6.912;2023-09-19T01:09:18;17.40;99.90
18597;DHT22;9428;50.950;6.912;2023-09-19T01:12:08;17.40;99.90
18597;DHT22;9428;50.950;6.912;2023-09-19T01:15:01;17.50;99.90
18597;DHT22;9428;50.950;6.912;2023-09-19T01:17:57;17.60;99.90
18597;DHT22;9428;50.950;6.912;2023-09-19T01:20:54;17.50;99.90
18597;DHT22;9428;50.950;6.912;2023-09-19T01:27:31;17.50;99.90
18597;DHT22;9428;50.950;6.912;2023-09-19T01:30:26;17.40;99.90
18597;DHT22;9428;50.950;6.912;2023-09-19T01:33:15;17.50;99.90
18597;DHT22;9428;50.950;6.912;2023-09-19T01:36:04;17.40;99.90
18597;DHT22;9428;50.950;6.912;2023-09-19T01:38:52;17.40;99.90
18597;DHT22;9428;50.950;6.912;2023-09-19T01:41:57;17.30;99.90
18597;DHT22;9428;50.950;6.912;2023-09-19T01:44:54;17.40;99.90
18597;DHT22;9428;50.950;6.912;2023-09-19T01:47:48;17.50;99.90
18597;DHT22;9428;50.950;6.912;2023-09-19T01:50:44;17.40;99.90
18597;DHT22;9428;50.950;6.912;2023-09-19T01:53:36;17.20;99.90
18597;DHT22;9428;50.950;6.912;2023-09-19T01:56:31;17.30;99.90
18597;DHT22;9428;50.950;6.912;2023-09-19T01:59:24;17.30;99.90
18597;DHT22;9428;50.950;6.912;2023-09-19T02:02:14;17.20;99.90
18597;DHT22;9428;50.950;6.912;2023-09-19T02:05:04;17.20;99.90
18597;DHT22;9428;50.950;6.912;2023-09-19T02:07:52;17.20;99.90
18597;DHT22;9428;50.950;6.912;2023-09-19T02:10:39;17.10;99.90
18597;DHT22;9428;50.950;6.912;2023-09-19T02:13:27;17.10;99.90
18597;DHT22;9428;50.950;6.912;2023-09-19T02:16:17;17.10;99.90
18597;DHT22;9428;50.950;6.912;2023-09-19T02:19:06;17.10;99.90
18597;DHT22;9428;50.950;6.912;2023-09-19T02:21:55;17.10;99.90
18597;DHT22;9428;50.950;6.912;2023-09-19T02:24:42;17.10;99.90
18597;DHT22;9428;50.950;6.912;2023-09-19T02:27:29;17.20;99.90
18597;DHT22;9428;50.950;6.912;2023-09-19T02:30:17;16.90;99.90
18597;DHT22;9428;50.950;6.912;2023-09-19T02:33:06;17.00;99.90
18597;DHT22;9428;50.950;6.912;2023-09-19T02:35:55;16.90;99.90
18597;DHT22;9428;50.950;6.912;2023-09-19T02:38:45;16.90;99.90
18597;DHT22;9428;50.950;6.912;2023-09-19T02:41:33;17.00;99.90
18597;DHT22;9428;50.950;6.912;2023-09-19T02:44:20;17.00;99.90
18597;DHT22;9428;50.950;6.912;2023-09-19T02:47:09;16.90;99.90
18597;DHT22;9428;50.950;6.912;2023-09-19T02:49:57;16.90;99.90
18597;DHT22;9428;50.950;6.912;2023-09-19T02:52:45;17.00;99.90
18597;DHT22;9428;50.950;6.912;2023-09-19T02:55:35;17.00;99.90
18597;DHT22;9428;50.950;6.912;2023-09-19T02:58:24;16.90;99.90
18597;DHT22;9428;50.950;6.912;2023-09-19T03:01:13;16.90;99.90
18597;DHT22;9428;50.950;6.912;2023-09-19T03:04:01;17.00;99.90
18597;DHT22;9428;50.950;6.912;2023-09-19T03:06:49;16.90;99.90
18597;DHT22;9428;50.950;6.912;2023-09-19T03:09:37;16.90;99.90
18597;DHT22;9428;50.950;6.912;2023-09-19T03:12:25;16.80;99.90
18597;DHT22;9428;50.950;6.912;2023-09-19T03:15:13;16.90;99.90
18597;DHT22;9428;50.950;6.912;2023-09-19T03:18:01;16.70;99.90
18597;DHT22;9428;50.950;6.912;2023-09-19T03:20:52;16.80;99.90
18597;DHT22;9428;50.950;6.912;2023-09-19T03:23:40;16.80;99.90
18597;DHT22;9428;50.950;6.912;2023-09-19T03:26:29;16.80;99.90
18597;DHT22;9428;50.950;6.912;2023-09-19T03:29:18;16.70;99.90
18597;DHT22;9428;50.950;6.912;2023-09-19T03:32:05;16.70;99.90
18597;DHT22;9428;50.950;6.912;2023-09-19T03:34:53;16.70;99.90
18597;DHT22;9428;50.950;6.912;2023-09-19T03:37:40;16.70;99.90
18597;DHT22;9428;50.950;6.912;2023-09-19T03:40:28;16.70;99.90
18597;DHT22;9428;50.950;6.912;2023-09-19T03:43:15;16.80;99.90
18597;DHT22;9428;50.950;6.912;2023-09-19T03:46:04;16.70;99.90
18597;DHT22;9428;50.950;6.912;2023-09-19T03:48:53;16.60;99.90
18597;DHT22;9428;50.950;6.912;2023-09-19T03:51:40;16.80;99.90
18597;DHT22;9428;50.950;6.912;2023-09-19T03:54:27;16.70;99.90
18597;DHT22;9428;50.950;6.912;2023-09-19T03:57:14;15.90;99.90
18597;DHT22;9428;50.950;6.912;2023-09-19T04:00:08;16.70;99.90
18597;DHT22;9428;50.950;6.912;2023-09-19T04:02:58;16.70;99.90
18597;DHT22;9428;50.950;6.912;2023-09-19T04:05:48;16.90;99.90
18597;DHT22;9428;50.950;6.912;2023-09-19T04:08:35;16.60;99.90
18597;DHT22;9428;50.950;6.912;2023-09-19T04:11:22;16.50;99.90
18597;DHT22;9428;50.950;6.912;2023-09-19T04:14:09;16.60;99.90
18597;DHT22;9428;50.950;6.912;2023-09-19T04:16:56;16.60;99.90
18597;DHT22;9428;50.950;6.912;2023-09-19T04:19:45;16.50;99.90
18597;DHT22;9428;50.950;6.912;2023-09-19T04:22:32;16.60;99.90
18597;DHT22;9428;50.950;6.912;2023-09-19T04:25:19;16.50;99.90
18597;DHT22;9428;50.950;6.912;2023-09-19T04:28:07;16.50;99.90
18597;DHT22;9428;50.950;6.912;2023-09-19T04:30:56;16.50;99.90
18597;DHT22;9428;50.950;6.912;2023-09-19T04:33:44;16.60;99.90
18597;DHT22;9428;50.950;6.912;2023-09-19T04:36:32;16.50;99.90
18597;DHT22;9428;50.950;6.912;2023-09-19T04:39:21;16.40;99.90
18597;DHT22;9428;50.950;6.912;2023-09-19T04:42:13;16.80;99.90
18597;DHT22;9428;50.950;6.912;2023-09-19T04:45:01;16.50;99.90
18597;DHT22;9428;50.950;6.912;2023-09-19T04:47:49;16.50;99.90
18597;DHT22;9428;50.950;6.912;2023-09-19T04:50:36;16.50;99.90
18597;DHT22;9428;50.950;6.912;2023-09-19T04:53:25;16.50;99.90
18597;DHT22;9428;50.950;6.912;2023-09-19T04:56:13;16.30;99.90
18597;DHT22;9428;50.950;6.912;2023-09-19T04:59:01;16.40;99.90
18597;DHT22;9428;50.950;6.912;2023-09-19T05:01:48;16.40;99.90
18597;DHT22;9428;50.950;6.912;2023-09-19T05:04:35;16.40;99.90
18597;DHT22;9428;50.950;6.912;2023-09-19T05:07:23;16.40;99.90
18597;DHT22;9428;50.950;6.912;2023-09-19T05:10:13;16.30;99.90
18597;DHT22;9428;50.950;6.912;2023-09-19T05:13:01;16.30;99.90
18597;DHT22;9428;50.950;6.912;2023-09-19T05:15:50;16.30;99.90
18597;DHT22;9428;50.950;6.912;2023-09-19T05:18:38;16.30;99.90
18597;DHT22;9428;50.950;6.912;2023-09-19T05:21:25;16.40;99.90
18597;DHT22;9428;50.950;6.912;2023-09-19T05:24:14;16.30;99.90
18597;DHT22;9428;50.950;6.912;2023-09-19T05:27:04;16.40;99.90
18597;DHT22;9428;50.950;6.912;2023-09-19T05:29:53;16.30;99.90
18597;DHT22;9428;50.950;6.912;2023-09-19T05:32:41;16.00;99.90
18597;DHT22;9428;50.950;6.912;2023-09-19T05:35:29;16.30;99.90
18597;DHT22;9428;50.950;6.912;2023-09-19T05:38:17;16.30;99.90
18597;DHT22;9428;50.950;6.912;2023-09-19T05:41:06;16.30;99.90
18597;DHT22;9428;50.950;6.912;2023-09-19T05:43:55;16.30;99.90
18597;DHT22;9428;50.950;6.912;2023-09-19T05:46:42;16.20;99.90
18597;DHT22;9428;50.950;6.912;2023-09-19T05:49:31;16.30;99.90
18597;DHT22;9428;50.950;6.912;2023-09-19T05:52:18;16.40;99.90
18597;DHT22;9428;50.950;6.912;2023-09-19T05:55:08;16.40;99.90
18597;DHT22;9428;50.950;6.912;2023-09-19T05:57:56;16.30;99.90
18597;DHT22;9428;50.950;6.912;2023-09-19T06:00:45;16.40;99.90
18597;DHT22;9428;50.950;6.912;2023-09-19T06:03:34;16.20;99.90
18597;DHT22;9428;50.950;6.912;2023-09-19T06:06:22;16.20;99.90
18597;DHT22;9428;50.950;6.912;2023-09-19T06:09:10;16.20;99.90
18597;DHT22;9428;50.950;6.912;2023-09-19T06:11:57;16.30;99.90
18597;DHT22;9428;50.950;6.912;2023-09-19T06:14:46;16.20;99.90
18597;DHT22;9428;50.950;6.912;2023-09-19T06:17:35;16.20;99.90
18597;DHT22;9428;50.950;6.912;2023-09-19T06:20:24;16.30;99.90
18597;DHT22;9428;50.950;6.912;2023-09-19T06:23:14;16.40;99.90
18597;DHT22;9428;50.950;6.912;2023-09-19T06:26:01;16.40;99.90
18597;DHT22;9428;50.950;6.912;2023-09-19T06:28:49;16.50;99.90
18597;DHT22;9428;50.950;6.912;2023-09-19T06:31:39;16.50;99.90
18597;DHT22;9428;50.950;6.912;2023-09-19T06:34:27;16.40;99.90
18597;DHT22;9428;50.950;6.912;2023-09-19T06:37:14;16.50;99.90
18597;DHT22;9428;50.950;6.912;2023-09-19T06:40:02;16.50;99.90
18597;DHT22;9428;50.950;6.912;2023-09-19T06:42:51;16.70;99.90
18597;DHT22;9428;50.950;6.912;2023-09-19T06:45:39;16.70;99.90
18597;DHT22;9428;50.950;6.912;2023-09-19T06:48:27;16.70;99.90
18597;DHT22;9428;50.950;6.912;2023-09-19T06:51:18;16.60;99.90
18597;DHT22;9428;50.950;6.912;2023-09-19T06:54:05;16.50;99.90
18597;DHT22;9428;50.950;6.912;2023-09-19T06:56:52;16.50;99.90
18597;DHT22;9428;50.950;6.912;2023-09-19T06:59:41;16.60;99.90
18597;DHT22;9428;50.950;6.912;2023-09-19T07:02:28;16.70;99.90
18597;DHT22;9428;50.950;6.912;2023-09-19T07:05:15;16.80;99.90
18597;DHT22;9428;50.950;6.912;2023-09-19T07:08:06;16.90;99.90
18597;DHT22;9428;50.950;6.912;2023-09-19T07:10:56;17.00;99.90
18597;DHT22;9428;50.950;6.912;2023-09-19T07:13:43;17.00;99.90
18597;DHT22;9428;50.950;6.912;2023-09-19T07:16:31;17.00;99.90
18597;DHT22;9428;50.950;6.912;2023-09-19T07:19:18;17.00;99.90
18597;DHT22;9428;50.950;6.912;2023-09-19T07:22:05;17.00;99.90
18597;DHT22;9428;50.950;6.912;2023-09-19T07:24:55;17.10;99.90
18597;DHT22;9428;50.950;6.912;2023-09-19T07:27:42;17.10;99.90
18597;DHT22;9428;50.950;6.912;2023-09-19T07:30:29;17.10;99.90
18597;DHT22;9428;50.950;6.912;2023-09-19T07:33:16;17.10;99.90
18597;DHT22;9428;50.950;6.912;2023-09-19T07:36:04;17.20;99.90
18597;DHT22;9428;50.950;6.912;2023-09-19T07:38:52;17.20;99.90
18597;DHT22;9428;50.950;6.912;2023-09-19T07:41:42;17.20;99.90
18597;DHT22;9428;50.950;6.912;2023-09-19T07:44:29;17.30;99.90
18597;DHT22;9428;50.950;6.912;2023-09-19T07:47:17;17.30;99.90
18597;DHT22;9428;50.950;6.912;2023-09-19T07:50:05;17.30;99.90
18597;DHT22;9428;50.950;6.912;2023-09-19T07:52:53;17.30;99.90
18597;DHT22;9428;50.950;6.912;2023-09-19T07:55:42;17.40;99.90
18597;DHT22;9428;50.950;6.912;2023-09-19T07:58:35;17.40;99.90
18597;DHT22;9428;50.950;6.912;2023-09-19T08:01:24;17.50;99.90
18597;DHT22;9428;50.950;6.912;2023-09-19T08:04:13;17.60;99.90
18597;DHT22;9428;50.950;6.912;2023-09-19T08:07:00;17.60;99.90
18597;DHT22;9428;50.950;6.912;2023-09-19T08:09:50;17.80;99.90
18597;DHT22;9428;50.950;6.912;2023-09-19T08:12:37;17.70;99.90
18597;DHT22;9428;50.950;6.912;2023-09-19T08:15:33;17.80;99.90
18597;DHT22;9428;50.950;6.912;2023-09-19T08:18:20;17.80;99.90
18597;DHT22;9428;50.950;6.912;2023-09-19T08:21:08;17.80;99.90
18597;DHT22;9428;50.950;6.912;2023-09-19T08:23:57;18.00;99.90
18597;DHT22;9428;50.950;6.912;2023-09-19T08:26:44;18.00;99.90
18597;DHT22;9428;50.950;6.912;2023-09-19T08:29:32;18.10;99.90
18597;DHT22;9428;50.950;6.912;2023-09-19T08:32:21;18.10;99.90
18597;DHT22;9428;50.950;6.912;2023-09-19T08:35:10;19.30;99.90
18597;DHT22;9428;50.950;6.912;2023-09-19T08:37:57;18.10;99.90
18597;DHT22;9428;50.950;6.912;2023-09-19T08:40:46;18.20;99.90
18597;DHT22;9428;50.950;6.912;2023-09-19T08:43:33;18.30;99.90
18597;DHT22;9428;50.950;6.912;2023-09-19T08:46:24;18.10;99.90
18597;DHT22;9428;50.950;6.912;2023-09-19T08:49:23;18.10;99.90
18597;DHT22;9428;50.950;6.912;2023-09-19T08:52:20;18.20;99.90
18597;DHT22;9428;50.950;6.912;2023-09-19T08:55:12;18.20;99.90
18597;DHT22;9428;50.950;6.912;2023-09-19T08:58:10;18.00;99.90
18597;DHT22;9428;50.950;6.912;2023-09-19T09:00:59;18.30;99.90
18597;DHT22;9428;50.950;6.912;2023-09-19T09:03:48;18.40;99.90
18597;DHT22;9428;50.950;6.912;2023-09-19T09:06:38;18.30;99.90
18597;DHT22;9428;50.950;6.912;2023-09-19T09:09:25;18.50;99.90
18597;DHT22;9428;50.950;6.912;2023-09-19T09:12:14;18.30;99.90
18597;DHT22;9428;50.950;6.912;2023-09-19T09:15:01;18.30;99.90
18597;DHT22;9428;50.950;6.912;2023-09-19T09:17:50;18.50;99.90
18597;DHT22;9428;50.950;6.912;2023-09-19T09:20:39;18.50;99.90
18597;DHT22;9428;50.950;6.912;2023-09-19T09:23:28;18.50;99.90
18597;DHT22;9428;50.950;6.912;2023-09-19T09:26:16;18.50;99.90
18597;DHT22;9428;50.950;6.912;2023-09-19T09:29:03;18.40;99.90
18597;DHT22;9428;50.950;6.912;2023-09-19T09:31:50;18.40;99.90
18597;DHT22;9428;50.950;6.912;2023-09-19T09:34:38;18.40;99.90
18597;DHT22;9428;50.950;6.912;2023-09-19T09:37:26;18.50;99.90
18597;DHT22;9428;50.950;6.912;2023-09-19T09:40:17;18.50;99.90
18597;DHT22;9428;50.950;6.912;2023-09-19T09:43:26;18.50;99.90
18597;DHT22;9428;50.950;6.912;2023-09-19T09:46:15;18.60;99.90
18597;DHT22;9428;50.950;6.912;2023-09-19T09:49:22;18.50;99.90
18597;DHT22;9428;50.950;6.912;2023-09-19T09:52:13;18.60;99.90
18597;DHT22;9428;50.950;6.912;2023-09-19T09:55:03;18.70;99.90
18597;DHT22;9428;50.950;6.912;2023-09-19T09:58:15;18.80;99.90
18597;DHT22;9428;50.950;6.912;2023-09-19T10:01:04;19.00;99.90
18597;DHT22;9428;50.950;6.912;2023-09-19T10:03:57;19.20;99.90
18597;DHT22;9428;50.950;6.912;2023-09-19T10:06:46;19.10;99.90
18597;DHT22;9428;50.950;6.912;2023-09-19T10:09:45;19.00;99.90
18597;DHT22;9428;50.950;6.912;2023-09-19T10:12:33;18.90;99.90
18597;DHT22;9428;50.950;6.912;2023-09-19T10:15:26;19.00;99.90
18597;DHT22;9428;50.950;6.912;2023-09-19T10:18:18;19.00;99.90
18597;DHT22;9428;50.950;6.912;2023-09-19T10:21:09;19.10;99.90
18597;DHT22;9428;50.950;6.912;2023-09-19T10:23:58;19.30;99.90
18597;DHT22;9428;50.950;6.912;2023-09-19T10:26:46;19.30;99.90
18597;DHT22;9428;50.950;6.912;2023-09-19T10:29:39;19.30;99.90
18597;DHT22;9428;50.950;6.912;2023-09-19T10:32:28;19.50;99.90
18597;DHT22;9428;50.950;6.912;2023-09-19T10:35:19;19.70;99.90
18597;DHT22;9428;50.950;6.912;2023-09-19T10:38:09;19.70;99.90
18597;DHT22;9428;50.950;6.912;2023-09-19T10:40:57;19.90;99.90
18597;DHT22;9428;50.950;6.912;2023-09-19T10:43:46;19.90;99.90
18597;DHT22;9428;50.950;6.912;2023-09-19T10:46:35;19.90;99.90
18597;DHT22;9428;50.950;6.912;2023-09-19T10:49:25;19.80;99.90
18597;DHT22;9428;50.950;6.912;2023-09-19T10:52:15;19.70;99.90
18597;DHT22;9428;50.950;6.912;2023-09-19T10:55:06;20.00;99.90
18597;DHT22;9428;50.950;6.912;2023-09-19T10:57:55;20.00;99.90
18597;DHT22;9428;50.950;6.912;2023-09-19T11:00:54;19.90;99.90
18597;DHT22;9428;50.950;6.912;2023-09-19T11:03:41;20.00;99.90
18597;DHT22;9428;50.950;6.912;2023-09-19T11:06:31;19.90;99.90
18597;DHT22;9428;50.950;6.912;2023-09-19T11:09:19;19.80;99.90
18597;DHT22;9428;50.950;6.912;2023-09-19T11:12:12;19.70;99.90
18597;DHT22;9428;50.950;6.912;2023-09-19T11:14:59;19.80;99.90
18597;DHT22;9428;50.950;6.912;2023-09-19T11:17:50;19.90;99.90
18597;DHT22;9428;50.950;6.912;2023-09-19T11:20:38;20.00;99.90
18597;DHT22;9428;50.950;6.912;2023-09-19T11:23:38;20.00;99.90
18597;DHT22;9428;50.950;6.912;2023-09-19T11:26:40;20.20;99.90
18597;DHT22;9428;50.950;6.912;2023-09-19T11:29:30;20.30;99.90
18597;DHT22;9428;50.950;6.912;2023-09-19T11:36:07;20.30;99.90
18597;DHT22;9428;50.950;6.912;2023-09-19T11:39:00;20.00;99.90
18597;DHT22;9428;50.950;6.912;2023-09-19T11:42:00;19.90;99.90
18597;DHT22;9428;50.950;6.912;2023-09-19T11:44:48;20.00;99.90
18597;DHT22;9428;50.950;6.912;2023-09-19T11:47:38;20.10;99.90
18597;DHT22;9428;50.950;6.912;2023-09-19T11:50:25;20.30;99.90
18597;DHT22;9428;50.950;6.912;2023-09-19T11:53:14;20.60;99.90
18597;DHT22;9428;50.950;6.912;2023-09-19T11:56:06;20.50;99.90
18597;DHT22;9428;50.950;6.912;2023-09-19T11:58:56;20.50;99.90
18597;DHT22;9428;50.950;6.912;2023-09-19T12:01:53;20.30;99.90
18597;DHT22;9428;50.950;6.912;2023-09-19T12:04:44;20.20;99.90
18597;DHT22;9428;50.950;6.912;2023-09-19T12:07:43;20.30;99.90
18597;DHT22;9428;50.950;6.912;2023-09-19T12:10:34;20.40;99.90
18597;DHT22;9428;50.950;6.912;2023-09-19T12:13:32;20.30;99.90
18597;DHT22;9428;50.950;6.912;2023-09-19T12:16:23;20.20;99.90
18597;DHT22;9428;50.950;6.912;2023-09-19T12:19:20;20.20;99.90
18597;DHT22;9428;50.950;6.912;2023-09-19T12:22:08;20.20;99.90
18597;DHT22;9428;50.950;6.912;2023-09-19T12:25:05;20.30;99.90
18597;DHT22;9428;50.950;6.912;2023-09-19T12:27:54;20.10;99.90
18597;DHT22;9428;50.950;6.912;2023-09-19T12:30:43;20.30;99.90
18597;DHT22;9428;50.950;6.912;2023-09-19T12:33:31;20.30;99.90
18597;DHT22;9428;50.950;6.912;2023-09-19T12:36:20;20.30;99.90
18597;DHT22;9428;50.950;6.912;2023-09-19T12:39:11;20.30;99.90
18597;DHT22;9428;50.950;6.912;2023-09-19T12:41:59;20.30;99.90
18597;DHT22;9428;50.950;6.912;2023-09-19T12:44:51;20.30;99.90
18597;DHT22;9428;50.950;6.912;2023-09-19T12:48:17;20.40;99.90
18597;DHT22;9428;50.950;6.912;2023-09-19T12:51:07;20.50;99.90
18597;DHT22;9428;50.950;6.912;2023-09-19T12:53:57;20.50;99.90
18597;DHT22;9428;50.950;6.912;2023-09-19T12:56:45;20.60;99.90
18597;DHT22;9428;50.950;6.912;2023-09-19T12:59:34;20.70;99.90
18597;DHT22;9428;50.950;6.912;2023-09-19T13:02:23;20.50;99.90
18597;DHT22;9428;50.950;6.912;2023-09-19T13:05:13;20.50;99.90
18597;DHT22;9428;50.950;6.912;2023-09-19T13:08:18;20.60;99.90
18597;DHT22;9428;50.950;6.912;2023-09-19T13:11:11;20.70;99.90
18597;DHT22;9428;50.950;6.912;2023-09-19T13:14:15;20.60;99.90
18597;DHT22;9428;50.950;6.912;2023-09-19T13:17:03;20.50;99.90
18597;DHT22;9428;50.950;6.912;2023-09-19T13:19:52;20.70;99.90
18597;DHT22;9428;50.950;6.912;2023-09-19T13:22:43;20.60;99.90
18597;DHT22;9428;50.950;6.912;2023-09-19T13:25:35;20.50;99.90
18597;DHT22;9428;50.950;6.912;2023-09-19T13:28:22;20.60;99.90
18597;DHT22;9428;50.950;6.912;2023-09-19T13:31:10;20.60;99.90
18597;DHT22;9428;50.950;6.912;2023-09-19T13:33:57;20.70;99.90
18597;DHT22;9428;50.950;6.912;2023-09-19T13:36:45;20.80;99.90
18597;DHT22;9428;50.950;6.912;2023-09-19T13:39:35;20.80;99.90
18597;DHT22;9428;50.950;6.912;2023-09-19T13:42:28;20.80;99.90
18597;DHT22;9428;50.950;6.912;2023-09-19T13:45:15;20.80;99.90
18597;DHT22;9428;50.950;6.912;2023-09-19T13:48:04;20.70;99.90
18597;DHT22;9428;50.950;6.912;2023-09-19T13:50:52;20.60;99.90
18597;DHT22;9428;50.950;6.912;2023-09-19T13:53:39;20.60;99.90
18597;DHT22;9428;50.950;6.912;2023-09-19T13:56:27;20.70;99.90
18597;DHT22;9428;50.950;6.912;2023-09-19T13:59:16;20.70;99.90
18597;DHT22;9428;50.950;6.912;2023-09-19T14:02:04;20.80;99.90
18597;DHT22;9428;50.950;6.912;2023-09-19T14:04:52;20.80;99.90
18597;DHT22;9428;50.950;6.912;2023-09-19T14:07:39;20.80;99.90
18597;DHT22;9428;50.950;6.912;2023-09-19T14:10:27;20.80;99.90
18597;DHT22;9428;50.950;6.912;2023-09-19T14:13:17;20.80;99.90
18597;DHT22;9428;50.950;6.912;2023-09-19T14:16:07;20.80;99.90
18597;DHT22;9428;50.950;6.912;2023-09-19T14:18:54;20.80;99.90
18597;DHT22;9428;50.950;6.912;2023-09-19T14:21:42;20.80;99.90
18597;DHT22;9428;50.950;6.912;2023-09-19T14:24:29;20.80;99.90
18597;DHT22;9428;50.950;6.912;2023-09-19T14:27:16;20.80;99.90
18597;DHT22;9428;50.950;6.912;2023-09-19T14:30:06;20.80;99.90
18597;DHT22;9428;50.950;6.912;2023-09-19T14:32:55;20.70;99.90
18597;DHT22;9428;50.950;6.912;2023-09-19T14:35:43;20.70;99.90
18597;DHT22;9428;50.950;6.912;2023-09-19T14:38:30;20.70;99.90
18597;DHT22;9428;50.950;6.912;2023-09-19T14:41:19;20.70;99.90
18597;DHT22;9428;50.950;6.912;2023-09-19T14:44:06;20.70;99.90
18597;DHT22;9428;50.950;6.912;2023-09-19T14:46:55;20.70;99.90
18597;DHT22;9428;50.950;6.912;2023-09-19T14:49:42;20.70;99.90
18597;DHT22;9428;50.950;6.912;2023-09-19T14:52:30;20.80;99.90
18597;DHT22;9428;50.950;6.912;2023-09-19T14:55:18;20.80;99.90
18597;DHT22;9428;50.950;6.912;2023-09-19T14:58:08;20.70;99.90
18597;DHT22;9428;50.950;6.912;2023-09-19T15:01:03;20.80;99.90
18597;DHT22;9428;50.950;6.912;2023-09-19T15:03:52;21.00;99.90
18597;DHT22;9428;50.950;6.912;2023-09-19T15:06:41;20.90;99.90
18597;DHT22;9428;50.950;6.912;2023-09-19T15:09:28;20.80;99.90
18597;DHT22;9428;50.950;6.912;2023-09-19T15:12:17;20.60;99.90
18597;DHT22;9428;50.950;6.912;2023-09-19T15:15:06;20.60;99.90
18597;DHT22;9428;50.950;6.912;2023-09-19T15:17:53;20.50;99.90
18597;DHT22;9428;50.950;6.912;2023-09-19T15:20:44;20.50;99.90
18597;DHT22;9428;50.950;6.912;2023-09-19T15:23:31;20.40;99.90
18597;DHT22;9428;50.950;6.912;2023-09-19T15:26:20;20.50;99.90
18597;DHT22;9428;50.950;6.912;2023-09-19T15:29:08;20.40;99.90
18597;DHT22;9428;50.950;6.912;2023-09-19T15:31:55;20.50;99.90
18597;DHT22;9428;50.950;6.912;2023-09-19T15:34:44;20.50;99.90
18597;DHT22;9428;50.950;6.912;2023-09-19T15:37:35;20.50;99.90
18597;DHT22;9428;50.950;6.912;2023-09-19T15:40:22;20.40;99.90
18597;DHT22;9428;50.950;6.912;2023-09-19T15:43:10;20.40;99.90
18597;DHT22;9428;50.950;6.912;2023-09-19T15:46:00;20.40;99.90
18597;DHT22;9428;50.950;6.912;2023-09-19T15:48:48;20.40;99.90
18597;DHT22;9428;50.950;6.912;2023-09-19T15:51:36;20.30;99.90
18597;DHT22;9428;50.950;6.912;2023-09-19T15:54:25;20.40;99.90
18597;DHT22;9428;50.950;6.912;2023-09-19T15:57:13;20.40;99.90
18597;DHT22;9428;50.950;6.912;2023-09-19T16:00:01;20.40;99.90
18597;DHT22;9428;50.950;6.912;2023-09-19T16:02:50;20.30;99.90
18597;DHT22;9428;50.950;6.912;2023-09-19T16:05:37;20.40;99.90
18597;DHT22;9428;50.950;6.912;2023-09-19T16:08:25;20.40;99.90
18597;DHT22;9428;50.950;6.912;2023-09-19T16:11:15;20.40;99.90
18597;DHT22;9428;50.950;6.912;2023-09-19T16:14:03;20.40;99.90
18597;DHT22;9428;50.950;6.912;2023-09-19T16:16:52;20.50;99.90
18597;DHT22;9428;50.950;6.912;2023-09-19T16:19:41;20.50;99.90
18597;DHT22;9428;50.950;6.912;2023-09-19T16:22:30;20.50;99.90
18597;DHT22;9428;50.950;6.912;2023-09-19T16:25:20;20.50;99.90
18597;DHT22;9428;50.950;6.912;2023-09-19T16:28:09;20.40;99.90
18597;DHT22;9428;50.950;6.912;2023-09-19T16:30:59;20.40;99.90
18597;DHT22;9428;50.950;6.912;2023-09-19T16:33:47;20.30;99.90
18597;DHT22;9428;50.950;6.912;2023-09-19T16:36:35;20.30;99.90
18597;DHT22;9428;50.950;6.912;2023-09-19T16:39:22;20.30;99.90
18597;DHT22;9428;50.950;6.912;2023-09-19T16:42:12;20.30;99.90
18597;DHT22;9428;50.950;6.912;2023-09-19T16:45:04;20.30;99.90
18597;DHT22;9428;50.950;6.912;2023-09-19T16:47:51;20.30;99.90
18597;DHT22;9428;50.950;6.912;2023-09-19T16:50:40;20.20;99.90
18597;DHT22;9428;50.950;6.912;2023-09-19T16:53:32;20.30;99.90
18597;DHT22;9428;50.950;6.912;2023-09-19T16:56:20;20.20;99.90
18597;DHT22;9428;50.950;6.912;2023-09-19T16:59:08;20.20;99.90
18597;DHT22;9428;50.950;6.912;2023-09-19T17:01:59;20.20;99.90
18597;DHT22;9428;50.950;6.912;2023-09-19T17:04:47;20.10;99.90
18597;DHT22;9428;50.950;6.912;2023-09-19T17:07:37;20.10;99.90
18597;DHT22;9428;50.950;6.912;2023-09-19T17:10:24;20.00;99.90
18597;DHT22;9428;50.950;6.912;2023-09-19T17:13:12;19.90;99.90
18597;DHT22;9428;50.950;6.912;2023-09-19T17:16:01;19.90;99.90
18597;DHT22;9428;50.950;6.912;2023-09-19T17:18:54;19.90;99.90
18597;DHT22;9428;50.950;6.912;2023-09-19T17:21:41;19.90;99.90
18597;DHT22;9428;50.950;6.912;2023-09-19T17:24:28;19.80;99.90
18597;DHT22;9428;50.950;6.912;2023-09-19T17:27:15;19.80;99.90
18597;DHT22;9428;50.950;6.912;2023-09-19T17:30:03;19.80;99.90
18597;DHT22;9428;50.950;6.912;2023-09-19T17:32:51;19.80;99.90
18597;DHT22;9428;50.950;6.912;2023-09-19T17:35:39;19.80;99.90
18597;DHT22;9428;50.950;6.912;2023-09-19T17:38:28;19.70;99.90
18597;DHT22;9428;50.950;6.912;2023-09-19T17:41:15;19.70;99.90
18597;DHT22;9428;50.950;6.912;2023-09-19T17:44:03;19.70;99.90
18597;DHT22;9428;50.950;6.912;2023-09-19T17:46:52;19.60;99.90
18597;DHT22;9428;50.950;6.912;2023-09-19T17:49:39;19.70;99.90
18597;DHT22;9428;50.950;6.912;2023-09-19T17:52:28;19.60;99.90
18597;DHT22;9428;50.950;6.912;2023-09-19T17:55:18;19.60;99.90
18597;DHT22;9428;50.950;6.912;2023-09-19T17:58:05;19.50;99.90
18597;DHT22;9428;50.950;6.912;2023-09-19T18:00:52;19.50;99.90
18597;DHT22;9428;50.950;6.912;2023-09-19T18:03:40;19.50;99.90
18597;DHT22;9428;50.950;6.912;2023-09-19T18:06:28;19.50;99.90
18597;DHT22;9428;50.950;6.912;2023-09-19T18:09:18;19.40;99.90
18597;DHT22;9428;50.950;6.912;2023-09-19T18:12:06;19.50;99.90
18597;DHT22;9428;50.950;6.912;2023-09-19T18:14:54;19.50;99.90